sensor_id;sensor_type;location;lat;lon;timestamp;P1;durP1;ratioP1;P2;durP2;ratioP2
21480;SDS011;10902;48.158;8.634;2023-03-26T00:01:41;5.43;;;1.42;;
21480;SDS011;10902;48.158;8.634;2023-03-26T00:04:10;6.63;;;1.85;;
21480;SDS011;10902;48.158;8.634;2023-03-26T00:06:36;7.65;;;1.80;;
21480;SDS011;10902;48.158;8.634;2023-03-26T00:09:04;6.93;;;1.80;;
21480;SDS011;10902;48.158;8.634;2023-03-26T00:11:32;8.82;;;2.08;;
21480;SDS011;10902;48.158;8.634;2023-03-26T00:13:58;5.18;;;1.40;;
21480;SDS011;10902;48.158;8.634;2023-03-26T00:16:28;4.85;;;1.50;;
21480;SDS011;10902;48.158;8.634;2023-03-26T00:18:55;5.28;;;1.70;;
21480;SDS011;10902;48.158;8.634;2023-03-26T00:21:22;6.50;;;1.60;;
21480;SDS011;10902;48.158;8.634;2023-03-26T00:23:51;9.00;;;1.63;;
21480;SDS011;10902;48.158;8.634;2023-03-26T00:26:18;7.38;;;1.88;;
21480;SDS011;10902;48.158;8.634;2023-03-26T00:28:43;6.68;;;1.83;;
21480;SDS011;10902;48.158;8.634;2023-03-26T00:31:10;6.47;;;1.60;;
21480;SDS011;10902;48.158;8.634;2023-03-26T00:33:37;5.88;;;1.83;;
21480;SDS011;10902;48.158;8.634;2023-03-26T00:36:05;8.77;;;2.00;;
21480;SDS011;10902;48.158;8.634;2023-03-26T00:38:34;8.52;;;1.58;;
21480;SDS011;10902;48.158;8.634;2023-03-26T00:41:03;11.02;;;2.22;;
21480;SDS011;10902;48.158;8.634;2023-03-26T00:43:30;7.47;;;2.17;;
21480;SDS011;10902;48.158;8.634;2023-03-26T00:45:57;6.80;;;1.88;;
21480;SDS011;10902;48.158;8.634;2023-03-26T00:48:23;9.35;;;1.80;;
21480;SDS011;10902;48.158;8.634;2023-03-26T00:50:51;14.07;;;2.00;;
21480;SDS011;10902;48.158;8.634;2023-03-26T00:53:17;8.30;;;1.90;;
21480;SDS011;10902;48.158;8.634;2023-03-26T00:55:44;9.15;;;2.05;;
21480;SDS011;10902;48.158;8.634;2023-03-26T00:58:11;8.15;;;1.90;;
21480;SDS011;10902;48.158;8.634;2023-03-26T01:00:46;6.72;;;2.08;;
21480;SDS011;10902;48.158;8.634;2023-03-26T01:03:16;12.00;;;2.75;;
21480;SDS011;10902;48.158;8.634;2023-03-26T01:05:46;7.75;;;1.60;;
21480;SDS011;10902;48.158;8.634;2023-03-26T01:10:54;7.47;;;2.28;;
21480;SDS011;10902;48.158;8.634;2023-03-26T01:13:27;9.85;;;1.88;;
21480;SDS011;10902;48.158;8.634;2023-03-26T01:15:59;9.60;;;1.92;;
21480;SDS011;10902;48.158;8.634;2023-03-26T01:18:26;7.38;;;1.88;;
21480;SDS011;10902;48.158;8.634;2023-03-26T01:20:58;8.98;;;2.15;;
21480;SDS011;10902;48.158;8.634;2023-03-26T01:24:14;8.38;;;2.20;;
21480;SDS011;10902;48.158;8.634;2023-03-26T01:29:03;9.65;;;1.92;;
21480;SDS011;10902;48.158;8.634;2023-03-26T01:31:35;9.25;;;2.53;;
21480;SDS011;10902;48.158;8.634;2023-03-26T01:34:18;9.13;;;2.10;;
21480;SDS011;10902;48.158;8.634;2023-03-26T01:39:58;9.27;;;2.47;;
21480;SDS011;10902;48.158;8.634;2023-03-26T01:42:36;7.95;;;1.73;;
21480;SDS011;10902;48.158;8.634;2023-03-26T01:47:41;10.07;;;1.70;;
21480;SDS011;10902;48.158;8.634;2023-03-26T01:50:08;9.63;;;2.38;;
21480;SDS011;10902;48.158;8.634;2023-03-26T01:52:34;8.98;;;2.20;;
21480;SDS011;10902;48.158;8.634;2023-03-26T01:55:00;11.90;;;2.70;;
21480;SDS011;10902;48.158;8.634;2023-03-26T02:06:36;9.63;;;2.05;;
21480;SDS011;10902;48.158;8.634;2023-03-26T02:08:50;7.07;;;2.83;;
21480;SDS011;10902;48.158;8.634;2023-03-26T02:11:20;10.52;;;1.88;;
21480;SDS011;10902;48.158;8.634;2023-03-26T02:13:45;8.68;;;2.10;;
21480;SDS011;10902;48.158;8.634;2023-03-26T02:16:12;7.07;;;3.03;;
21480;SDS011;10902;48.158;8.634;2023-03-26T02:18:43;7.65;;;2.30;;
21480;SDS011;10902;48.158;8.634;2023-03-26T02:21:12;9.38;;;2.28;;
21480;SDS011;10902;48.158;8.634;2023-03-26T02:23:44;10.73;;;2.55;;
21480;SDS011;10902;48.158;8.634;2023-03-26T02:26:11;11.25;;;2.33;;
21480;SDS011;10902;48.158;8.634;2023-03-26T02:28:38;8.95;;;2.50;;
21480;SDS011;10902;48.158;8.634;2023-03-26T02:31:05;9.20;;;2.53;;
21480;SDS011;10902;48.158;8.634;2023-03-26T02:33:34;13.43;;;2.58;;
21480;SDS011;10902;48.158;8.634;2023-03-26T02:35:59;9.50;;;2.58;;
21480;SDS011;10902;48.158;8.634;2023-03-26T02:38:29;9.82;;;2.53;;
21480;SDS011;10902;48.158;8.634;2023-03-26T02:40:58;8.05;;;2.22;;
21480;SDS011;10902;48.158;8.634;2023-03-26T02:43:28;7.93;;;2.50;;
21480;SDS011;10902;48.158;8.634;2023-03-26T02:45:54;10.20;;;3.10;;
21480;SDS011;10902;48.158;8.634;2023-03-26T02:48:20;11.55;;;2.67;;
21480;SDS011;10902;48.158;8.634;2023-03-26T02:50:46;6.20;;;2.25;;
21480;SDS011;10902;48.158;8.634;2023-03-26T02:53:14;8.70;;;2.40;;
21480;SDS011;10902;48.158;8.634;2023-03-26T02:55:40;10.23;;;2.80;;
21480;SDS011;10902;48.158;8.634;2023-03-26T02:58:06;8.98;;;2.55;;
21480;SDS011;10902;48.158;8.634;2023-03-26T03:00:32;11.07;;;2.90;;
21480;SDS011;10902;48.158;8.634;2023-03-26T03:02:58;9.02;;;2.70;;
21480;SDS011;10902;48.158;8.634;2023-03-26T03:05:28;9.07;;;2.85;;
21480;SDS011;10902;48.158;8.634;2023-03-26T03:07:56;9.93;;;2.72;;
21480;SDS011;10902;48.158;8.634;2023-03-26T03:10:23;11.02;;;2.72;;
21480;SDS011;10902;48.158;8.634;2023-03-26T03:12:50;9.68;;;2.30;;
21480;SDS011;10902;48.158;8.634;2023-03-26T03:15:16;5.75;;;1.73;;
21480;SDS011;10902;48.158;8.634;2023-03-26T03:17:41;13.73;;;1.90;;
21480;SDS011;10902;48.158;8.634;2023-03-26T03:20:07;9.10;;;2.22;;
21480;SDS011;10902;48.158;8.634;2023-03-26T03:22:36;7.68;;;1.60;;
21480;SDS011;10902;48.158;8.634;2023-03-26T03:25:02;9.65;;;2.10;;
21480;SDS011;10902;48.158;8.634;2023-03-26T03:27:29;13.23;;;2.67;;
21480;SDS011;10902;48.158;8.634;2023-03-26T03:29:54;7.82;;;2.20;;
21480;SDS011;10902;48.158;8.634;2023-03-26T03:32:21;8.38;;;2.58;;
21480;SDS011;10902;48.158;8.634;2023-03-26T03:34:47;8.73;;;2.75;;
21480;SDS011;10902;48.158;8.634;2023-03-26T03:37:15;8.57;;;2.42;;
21480;SDS011;10902;48.158;8.634;2023-03-26T03:39:41;10.32;;;2.20;;
21480;SDS011;10902;48.158;8.634;2023-03-26T03:42:07;9.65;;;2.65;;
21480;SDS011;10902;48.158;8.634;2023-03-26T03:44:32;7.63;;;2.30;;
21480;SDS011;10902;48.158;8.634;2023-03-26T03:46:58;8.55;;;2.55;;
21480;SDS011;10902;48.158;8.634;2023-03-26T03:49:23;9.93;;;2.30;;
21480;SDS011;10902;48.158;8.634;2023-03-26T03:51:49;12.07;;;2.78;;
21480;SDS011;10902;48.158;8.634;2023-03-26T03:54:14;9.40;;;2.33;;
21480;SDS011;10902;48.158;8.634;2023-03-26T03:56:40;7.40;;;1.95;;
21480;SDS011;10902;48.158;8.634;2023-03-26T03:59:05;7.72;;;2.00;;
21480;SDS011;10902;48.158;8.634;2023-03-26T04:01:32;10.57;;;2.20;;
21480;SDS011;10902;48.158;8.634;2023-03-26T04:03:58;6.82;;;2.00;;
21480;SDS011;10902;48.158;8.634;2023-03-26T04:06:24;9.75;;;2.25;;
21480;SDS011;10902;48.158;8.634;2023-03-26T04:08:50;8.63;;;2.30;;
21480;SDS011;10902;48.158;8.634;2023-03-26T04:11:16;12.00;;;3.00;;
21480;SDS011;10902;48.158;8.634;2023-03-26T04:13:42;9.73;;;1.80;;
21480;SDS011;10902;48.158;8.634;2023-03-26T04:16:08;9.60;;;2.78;;
21480;SDS011;10902;48.158;8.634;2023-03-26T04:18:35;11.85;;;2.75;;
21480;SDS011;10902;48.158;8.634;2023-03-26T04:21:01;8.15;;;2.00;;
21480;SDS011;10902;48.158;8.634;2023-03-26T04:23:29;7.75;;;2.42;;
21480;SDS011;10902;48.158;8.634;2023-03-26T04:25:55;9.82;;;2.95;;
21480;SDS011;10902;48.158;8.634;2023-03-26T04:28:49;9.10;;;2.67;;
21480;SDS011;10902;48.158;8.634;2023-03-26T04:31:17;9.65;;;3.13;;
21480;SDS011;10902;48.158;8.634;2023-03-26T04:33:48;8.82;;;2.40;;
21480;SDS011;10902;48.158;8.634;2023-03-26T04:36:18;8.80;;;2.53;;
21480;SDS011;10902;48.158;8.634;2023-03-26T04:38:48;8.82;;;2.33;;
21480;SDS011;10902;48.158;8.634;2023-03-26T04:41:15;8.43;;;2.53;;
21480;SDS011;10902;48.158;8.634;2023-03-26T04:43:41;8.35;;;2.72;;
21480;SDS011;10902;48.158;8.634;2023-03-26T04:46:11;10.25;;;3.53;;
21480;SDS011;10902;48.158;8.634;2023-03-26T04:48:37;6.45;;;2.75;;
21480;SDS011;10902;48.158;8.634;2023-03-26T04:51:03;9.38;;;2.35;;
21480;SDS011;10902;48.158;8.634;2023-03-26T04:53:33;11.25;;;2.70;;
21480;SDS011;10902;48.158;8.634;2023-03-26T04:58:45;7.97;;;2.30;;
21480;SDS011;10902;48.158;8.634;2023-03-26T05:01:12;12.52;;;2.63;;
21480;SDS011;10902;48.158;8.634;2023-03-26T05:03:37;13.00;;;2.63;;
21480;SDS011;10902;48.158;8.634;2023-03-26T05:06:05;11.38;;;2.47;;
21480;SDS011;10902;48.158;8.634;2023-03-26T05:08:31;9.70;;;2.40;;
21480;SDS011;10902;48.158;8.634;2023-03-26T05:10:56;9.40;;;2.50;;
21480;SDS011;10902;48.158;8.634;2023-03-26T05:13:22;13.52;;;2.50;;
21480;SDS011;10902;48.158;8.634;2023-03-26T05:15:48;8.98;;;2.17;;
21480;SDS011;10902;48.158;8.634;2023-03-26T05:18:14;14.18;;;2.35;;
21480;SDS011;10902;48.158;8.634;2023-03-26T05:20:40;12.52;;;2.67;;
21480;SDS011;10902;48.158;8.634;2023-03-26T05:23:07;10.70;;;2.25;;
21480;SDS011;10902;48.158;8.634;2023-03-26T05:25:33;10.90;;;2.35;;
21480;SDS011;10902;48.158;8.634;2023-03-26T05:28:01;12.30;;;2.63;;
21480;SDS011;10902;48.158;8.634;2023-03-26T05:30:27;13.40;;;2.42;;
21480;SDS011;10902;48.158;8.634;2023-03-26T05:32:52;7.63;;;2.33;;
21480;SDS011;10902;48.158;8.634;2023-03-26T05:35:18;14.05;;;2.75;;
21480;SDS011;10902;48.158;8.634;2023-03-26T05:37:45;9.70;;;2.83;;
21480;SDS011;10902;48.158;8.634;2023-03-26T05:40:11;12.13;;;3.00;;
21480;SDS011;10902;48.158;8.634;2023-03-26T05:42:40;12.25;;;2.67;;
21480;SDS011;10902;48.158;8.634;2023-03-26T05:45:07;10.10;;;2.30;;
21480;SDS011;10902;48.158;8.634;2023-03-26T05:47:34;10.32;;;2.55;;
21480;SDS011;10902;48.158;8.634;2023-03-26T05:50:01;13.63;;;2.60;;
21480;SDS011;10902;48.158;8.634;2023-03-26T05:52:27;12.85;;;2.78;;
21480;SDS011;10902;48.158;8.634;2023-03-26T05:54:53;12.75;;;3.30;;
21480;SDS011;10902;48.158;8.634;2023-03-26T05:57:18;12.15;;;4.90;;
21480;SDS011;10902;48.158;8.634;2023-03-26T05:59:46;9.63;;;2.63;;
21480;SDS011;10902;48.158;8.634;2023-03-26T06:02:12;13.13;;;2.95;;
21480;SDS011;10902;48.158;8.634;2023-03-26T06:04:37;11.05;;;2.63;;
21480;SDS011;10902;48.158;8.634;2023-03-26T06:07:05;8.98;;;2.47;;
21480;SDS011;10902;48.158;8.634;2023-03-26T06:09:34;9.43;;;2.00;;
21480;SDS011;10902;48.158;8.634;2023-03-26T06:12:04;11.68;;;3.03;;
21480;SDS011;10902;48.158;8.634;2023-03-26T06:14:31;8.38;;;2.40;;
21480;SDS011;10902;48.158;8.634;2023-03-26T06:16:56;8.80;;;2.15;;
21480;SDS011;10902;48.158;8.634;2023-03-26T06:19:22;8.73;;;2.20;;
21480;SDS011;10902;48.158;8.634;2023-03-26T06:21:48;9.52;;;1.83;;
21480;SDS011;10902;48.158;8.634;2023-03-26T06:24:14;10.95;;;2.17;;
21480;SDS011;10902;48.158;8.634;2023-03-26T06:26:40;12.32;;;2.58;;
21480;SDS011;10902;48.158;8.634;2023-03-26T06:29:06;12.02;;;2.65;;
21480;SDS011;10902;48.158;8.634;2023-03-26T06:31:32;7.93;;;2.50;;
21480;SDS011;10902;48.158;8.634;2023-03-26T06:33:59;8.05;;;2.03;;
21480;SDS011;10902;48.158;8.634;2023-03-26T06:36:25;8.93;;;2.15;;
21480;SDS011;10902;48.158;8.634;2023-03-26T06:38:50;10.20;;;3.20;;
21480;SDS011;10902;48.158;8.634;2023-03-26T06:41:16;9.73;;;2.72;;
21480;SDS011;10902;48.158;8.634;2023-03-26T06:43:41;12.30;;;3.10;;
21480;SDS011;10902;48.158;8.634;2023-03-26T06:46:07;10.00;;;2.42;;
21480;SDS011;10902;48.158;8.634;2023-03-26T06:48:33;9.52;;;2.42;;
21480;SDS011;10902;48.158;8.634;2023-03-26T06:50:58;10.20;;;2.58;;
21480;SDS011;10902;48.158;8.634;2023-03-26T06:53:24;7.47;;;2.33;;
21480;SDS011;10902;48.158;8.634;2023-03-26T06:55:51;9.50;;;2.40;;
21480;SDS011;10902;48.158;8.634;2023-03-26T06:58:18;8.25;;;3.10;;
21480;SDS011;10902;48.158;8.634;2023-03-26T07:00:44;7.65;;;2.97;;
21480;SDS011;10902;48.158;8.634;2023-03-26T07:03:09;10.68;;;2.92;;
21480;SDS011;10902;48.158;8.634;2023-03-26T07:05:35;10.40;;;2.60;;
21480;SDS011;10902;48.158;8.634;2023-03-26T07:08:01;9.13;;;2.60;;
21480;SDS011;10902;48.158;8.634;2023-03-26T07:10:27;7.60;;;2.42;;
21480;SDS011;10902;48.158;8.634;2023-03-26T07:12:53;6.93;;;2.53;;
21480;SDS011;10902;48.158;8.634;2023-03-26T07:15:18;9.88;;;2.60;;
21480;SDS011;10902;48.158;8.634;2023-03-26T07:17:44;8.18;;;2.45;;
21480;SDS011;10902;48.158;8.634;2023-03-26T07:20:10;8.93;;;2.60;;
21480;SDS011;10902;48.158;8.634;2023-03-26T07:22:36;8.60;;;2.90;;
21480;SDS011;10902;48.158;8.634;2023-03-26T07:25:02;6.07;;;2.63;;
21480;SDS011;10902;48.158;8.634;2023-03-26T07:27:43;8.05;;;2.85;;
21480;SDS011;10902;48.158;8.634;2023-03-26T07:30:22;7.10;;;2.97;;
21480;SDS011;10902;48.158;8.634;2023-03-26T07:33:07;10.73;;;3.55;;
21480;SDS011;10902;48.158;8.634;2023-03-26T07:38:28;9.45;;;2.75;;
21480;SDS011;10902;48.158;8.634;2023-03-26T07:46:38;8.55;;;2.70;;
21480;SDS011;10902;48.158;8.634;2023-03-26T07:49:05;7.38;;;3.17;;
21480;SDS011;10902;48.158;8.634;2023-03-26T07:51:33;8.65;;;3.63;;
21480;SDS011;10902;48.158;8.634;2023-03-26T07:53:59;6.45;;;3.05;;
21480;SDS011;10902;48.158;8.634;2023-03-26T08:10:41;8.13;;;3.60;;
21480;SDS011;10902;48.158;8.634;2023-03-26T08:21:05;8.70;;;2.78;;
21480;SDS011;10902;48.158;8.634;2023-03-26T08:23:46;6.95;;;3.40;;
21480;SDS011;10902;48.158;8.634;2023-03-26T08:32:31;9.15;;;3.55;;
21480;SDS011;10902;48.158;8.634;2023-03-26T08:34:57;9.10;;;3.28;;
21480;SDS011;10902;48.158;8.634;2023-03-26T08:37:24;5.95;;;3.08;;
21480;SDS011;10902;48.158;8.634;2023-03-26T08:39:51;6.18;;;3.05;;
21480;SDS011;10902;48.158;8.634;2023-03-26T08:48:00;4.35;;;1.35;;
21480;SDS011;10902;48.158;8.634;2023-03-26T08:53:49;3.25;;;1.30;;
21480;SDS011;10902;48.158;8.634;2023-03-26T08:56:43;3.67;;;1.30;;
21480;SDS011;10902;48.158;8.634;2023-03-26T09:10:45;4.72;;;2.10;;
21480;SDS011;10902;48.158;8.634;2023-03-26T09:16:08;3.50;;;1.55;;
21480;SDS011;10902;48.158;8.634;2023-03-26T09:22:23;3.38;;;1.00;;
21480;SDS011;10902;48.158;8.634;2023-03-26T09:25:01;3.35;;;1.05;;
21480;SDS011;10902;48.158;8.634;2023-03-26T09:30:43;2.13;;;0.70;;
21480;SDS011;10902;48.158;8.634;2023-03-26T09:41:56;2.08;;;0.80;;
21480;SDS011;10902;48.158;8.634;2023-03-26T09:45:06;3.92;;;0.90;;
21480;SDS011;10902;48.158;8.634;2023-03-26T09:48:14;4.40;;;0.90;;
21480;SDS011;10902;48.158;8.634;2023-03-26T09:50:54;4.32;;;0.90;;
21480;SDS011;10902;48.158;8.634;2023-03-26T09:59:36;4.07;;;1.10;;
21480;SDS011;10902;48.158;8.634;2023-03-26T10:07:45;3.10;;;0.80;;
21480;SDS011;10902;48.158;8.634;2023-03-26T10:12:51;2.55;;;0.85;;
21480;SDS011;10902;48.158;8.634;2023-03-26T10:21:05;4.35;;;0.90;;
21480;SDS011;10902;48.158;8.634;2023-03-26T10:23:47;3.97;;;0.95;;
21480;SDS011;10902;48.158;8.634;2023-03-26T10:50:48;3.90;;;0.77;;
21480;SDS011;10902;48.158;8.634;2023-03-26T10:53:33;2.97;;;0.80;;
21480;SDS011;10902;48.158;8.634;2023-03-26T10:56:24;3.13;;;0.50;;
21480;SDS011;10902;48.158;8.634;2023-03-26T10:58:56;4.40;;;1.08;;
21480;SDS011;10902;48.158;8.634;2023-03-26T11:01:47;3.50;;;0.77;;
21480;SDS011;10902;48.158;8.634;2023-03-26T11:07:23;3.22;;;0.70;;
21480;SDS011;10902;48.158;8.634;2023-03-26T11:10:10;3.65;;;0.80;;
21480;SDS011;10902;48.158;8.634;2023-03-26T11:15:37;4.82;;;0.90;;
21480;SDS011;10902;48.158;8.634;2023-03-26T11:18:11;3.67;;;0.90;;
21480;SDS011;10902;48.158;8.634;2023-03-26T11:21:07;4.65;;;0.70;;
21480;SDS011;10902;48.158;8.634;2023-03-26T11:26:24;2.63;;;0.60;;
21480;SDS011;10902;48.158;8.634;2023-03-26T11:34:24;3.63;;;0.85;;
21480;SDS011;10902;48.158;8.634;2023-03-26T11:36:55;2.92;;;0.98;;
21480;SDS011;10902;48.158;8.634;2023-03-26T11:39:24;3.55;;;0.70;;
21480;SDS011;10902;48.158;8.634;2023-03-26T11:41:54;4.20;;;0.90;;
21480;SDS011;10902;48.158;8.634;2023-03-26T11:47:20;3.70;;;0.93;;
21480;SDS011;10902;48.158;8.634;2023-03-26T11:49:52;2.97;;;0.70;;
21480;SDS011;10902;48.158;8.634;2023-03-26T11:52:21;3.28;;;0.93;;
21480;SDS011;10902;48.158;8.634;2023-03-26T11:54:47;3.45;;;0.80;;
21480;SDS011;10902;48.158;8.634;2023-03-26T11:57:21;2.15;;;0.52;;
21480;SDS011;10902;48.158;8.634;2023-03-26T12:02:38;2.75;;;0.73;;
21480;SDS011;10902;48.158;8.634;2023-03-26T12:07:45;3.10;;;0.70;;
21480;SDS011;10902;48.158;8.634;2023-03-26T12:10:20;3.75;;;0.70;;
21480;SDS011;10902;48.158;8.634;2023-03-26T12:12:51;3.75;;;0.70;;
21480;SDS011;10902;48.158;8.634;2023-03-26T12:15:20;4.38;;;0.80;;
21480;SDS011;10902;48.158;8.634;2023-03-26T12:17:48;2.90;;;0.70;;
21480;SDS011;10902;48.158;8.634;2023-03-26T12:20:25;2.78;;;0.80;;
21480;SDS011;10902;48.158;8.634;2023-03-26T12:23:01;5.00;;;0.93;;
21480;SDS011;10902;48.158;8.634;2023-03-26T12:25:29;2.70;;;0.75;;
21480;SDS011;10902;48.158;8.634;2023-03-26T12:28:04;4.43;;;1.20;;
21480;SDS011;10902;48.158;8.634;2023-03-26T12:30:40;4.22;;;0.70;;
21480;SDS011;10902;48.158;8.634;2023-03-26T12:33:15;4.75;;;0.93;;
21480;SDS011;10902;48.158;8.634;2023-03-26T12:35:49;3.97;;;0.73;;
21480;SDS011;10902;48.158;8.634;2023-03-26T12:41:03;3.45;;;0.80;;
21480;SDS011;10902;48.158;8.634;2023-03-26T12:46:01;3.08;;;0.50;;
21480;SDS011;10902;48.158;8.634;2023-03-26T12:48:26;2.25;;;0.50;;
21480;SDS011;10902;48.158;8.634;2023-03-26T12:53:41;2.92;;;0.57;;
21480;SDS011;10902;48.158;8.634;2023-03-26T12:59:08;1.52;;;0.40;;
21480;SDS011;10902;48.158;8.634;2023-03-26T13:05:32;2.83;;;0.50;;
21480;SDS011;10902;48.158;8.634;2023-03-26T13:07:58;4.35;;;0.57;;
21480;SDS011;10902;48.158;8.634;2023-03-26T13:13:54;3.38;;;0.70;;
21480;SDS011;10902;48.158;8.634;2023-03-26T13:19:15;3.13;;;0.60;;
21480;SDS011;10902;48.158;8.634;2023-03-26T13:27:21;3.60;;;0.70;;
21480;SDS011;10902;48.158;8.634;2023-03-26T13:46:58;5.40;;;0.90;;
21480;SDS011;10902;48.158;8.634;2023-03-26T13:49:32;5.53;;;0.95;;
21480;SDS011;10902;48.158;8.634;2023-03-26T13:54:54;5.25;;;1.10;;
21480;SDS011;10902;48.158;8.634;2023-03-26T13:57:47;5.00;;;1.10;;
21480;SDS011;10902;48.158;8.634;2023-03-26T14:00:28;4.10;;;0.90;;
21480;SDS011;10902;48.158;8.634;2023-03-26T14:03:08;2.85;;;0.70;;
21480;SDS011;10902;48.158;8.634;2023-03-26T14:05:44;4.82;;;0.95;;
21480;SDS011;10902;48.158;8.634;2023-03-26T14:10:55;2.67;;;0.60;;
21480;SDS011;10902;48.158;8.634;2023-03-26T14:18:48;2.78;;;0.60;;
21480;SDS011;10902;48.158;8.634;2023-03-26T14:29:39;3.10;;;0.60;;
21480;SDS011;10902;48.158;8.634;2023-03-26T14:32:30;3.30;;;0.68;;
21480;SDS011;10902;48.158;8.634;2023-03-26T14:35:27;4.40;;;0.90;;
21480;SDS011;10902;48.158;8.634;2023-03-26T14:43:54;4.20;;;0.60;;
21480;SDS011;10902;48.158;8.634;2023-03-26T14:52:51;2.90;;;0.55;;
21480;SDS011;10902;48.158;8.634;2023-03-26T14:55:37;2.10;;;0.50;;
21480;SDS011;10902;48.158;8.634;2023-03-26T15:09:30;1.58;;;0.40;;
21480;SDS011;10902;48.158;8.634;2023-03-26T15:43:10;1.05;;;0.20;;
21480;SDS011;10902;48.158;8.634;2023-03-26T15:54:45;1.63;;;1.52;;
21480;SDS011;10902;48.158;8.634;2023-03-26T15:57:48;0.70;;;0.30;;
21480;SDS011;10902;48.158;8.634;2023-03-26T16:00:33;1.15;;;0.20;;
21480;SDS011;10902;48.158;8.634;2023-03-26T16:11:00;0.82;;;0.30;;
21480;SDS011;10902;48.158;8.634;2023-03-26T16:17:12;0.95;;;0.32;;
21480;SDS011;10902;48.158;8.634;2023-03-26T16:19:46;1.20;;;0.28;;
21480;SDS011;10902;48.158;8.634;2023-03-26T16:28:05;0.93;;;0.20;;
21480;SDS011;10902;48.158;8.634;2023-03-26T16:30:34;1.02;;;0.25;;
21480;SDS011;10902;48.158;8.634;2023-03-26T16:33:17;0.93;;;0.30;;
21480;SDS011;10902;48.158;8.634;2023-03-26T16:38:46;0.73;;;0.20;;
21480;SDS011;10902;48.158;8.634;2023-03-26T16:49:25;0.75;;;0.20;;
21480;SDS011;10902;48.158;8.634;2023-03-26T17:08:39;0.90;;;0.30;;
21480;SDS011;10902;48.158;8.634;2023-03-26T17:19:46;1.15;;;0.30;;
21480;SDS011;10902;48.158;8.634;2023-03-26T17:22:37;1.00;;;0.40;;
21480;SDS011;10902;48.158;8.634;2023-03-26T17:35:50;0.88;;;0.30;;
21480;SDS011;10902;48.158;8.634;2023-03-26T17:41:08;2.55;;;0.95;;
21480;SDS011;10902;48.158;8.634;2023-03-26T17:43:45;1.27;;;0.40;;
21480;SDS011;10902;48.158;8.634;2023-03-26T17:49:03;1.60;;;0.47;;
21480;SDS011;10902;48.158;8.634;2023-03-26T17:51:40;1.67;;;0.30;;
21480;SDS011;10902;48.158;8.634;2023-03-26T17:54:12;2.97;;;0.70;;
21480;SDS011;10902;48.158;8.634;2023-03-26T17:56:43;0.95;;;0.30;;
21480;SDS011;10902;48.158;8.634;2023-03-26T17:59:14;2.28;;;0.60;;
21480;SDS011;10902;48.158;8.634;2023-03-26T18:01:47;2.33;;;0.60;;
21480;SDS011;10902;48.158;8.634;2023-03-26T18:04:18;1.42;;;0.40;;
21480;SDS011;10902;48.158;8.634;2023-03-26T18:12:12;3.13;;;0.80;;
21480;SDS011;10902;48.158;8.634;2023-03-26T18:18:12;1.25;;;0.43;;
21480;SDS011;10902;48.158;8.634;2023-03-26T18:20:44;1.23;;;0.43;;
21480;SDS011;10902;48.158;8.634;2023-03-26T18:23:23;2.00;;;0.70;;
21480;SDS011;10902;48.158;8.634;2023-03-26T18:28:49;2.70;;;0.60;;
21480;SDS011;10902;48.158;8.634;2023-03-26T18:31:23;0.95;;;0.30;;
21480;SDS011;10902;48.158;8.634;2023-03-26T18:33:53;1.13;;;0.40;;
21480;SDS011;10902;48.158;8.634;2023-03-26T18:36:23;1.20;;;0.40;;
21480;SDS011;10902;48.158;8.634;2023-03-26T18:38:54;1.52;;;0.40;;
21480;SDS011;10902;48.158;8.634;2023-03-26T18:41:24;1.10;;;0.30;;
21480;SDS011;10902;48.158;8.634;2023-03-26T18:43:55;1.17;;;0.40;;
21480;SDS011;10902;48.158;8.634;2023-03-26T18:46:25;1.48;;;0.38;;
21480;SDS011;10902;48.158;8.634;2023-03-26T18:48:51;1.90;;;0.60;;
21480;SDS011;10902;48.158;8.634;2023-03-26T18:51:19;3.00;;;0.80;;
21480;SDS011;10902;48.158;8.634;2023-03-26T18:53:59;1.50;;;0.40;;
21480;SDS011;10902;48.158;8.634;2023-03-26T18:56:29;1.33;;;0.45;;
21480;SDS011;10902;48.158;8.634;2023-03-26T18:59:03;0.75;;;0.30;;
21480;SDS011;10902;48.158;8.634;2023-03-26T19:01:52;2.15;;;0.60;;
21480;SDS011;10902;48.158;8.634;2023-03-26T19:04:22;1.38;;;0.50;;
21480;SDS011;10902;48.158;8.634;2023-03-26T19:06:52;1.20;;;0.30;;
21480;SDS011;10902;48.158;8.634;2023-03-26T19:09:20;1.25;;;0.50;;
21480;SDS011;10902;48.158;8.634;2023-03-26T19:11:48;2.78;;;0.70;;
21480;SDS011;10902;48.158;8.634;2023-03-26T19:14:18;3.53;;;0.90;;
21480;SDS011;10902;48.158;8.634;2023-03-26T19:16:48;1.77;;;0.50;;
21480;SDS011;10902;48.158;8.634;2023-03-26T19:19:20;2.97;;;0.80;;
21480;SDS011;10902;48.158;8.634;2023-03-26T19:21:48;3.05;;;1.30;;
21480;SDS011;10902;48.158;8.634;2023-03-26T19:24:15;3.28;;;1.17;;
21480;SDS011;10902;48.158;8.634;2023-03-26T19:26:44;2.22;;;0.68;;
21480;SDS011;10902;48.158;8.634;2023-03-26T19:29:16;2.22;;;0.88;;
21480;SDS011;10902;48.158;8.634;2023-03-26T19:31:48;1.75;;;0.60;;
21480;SDS011;10902;48.158;8.634;2023-03-26T19:34:23;3.25;;;0.50;;
21480;SDS011;10902;48.158;8.634;2023-03-26T19:36:56;2.10;;;0.70;;
21480;SDS011;10902;48.158;8.634;2023-03-26T19:39:43;2.85;;;0.70;;
21480;SDS011;10902;48.158;8.634;2023-03-26T19:42:11;2.33;;;0.70;;
21480;SDS011;10902;48.158;8.634;2023-03-26T19:44:58;1.45;;;0.50;;
21480;SDS011;10902;48.158;8.634;2023-03-26T19:47:39;2.90;;;0.80;;
21480;SDS011;10902;48.158;8.634;2023-03-26T19:50:13;2.85;;;0.80;;
21480;SDS011;10902;48.158;8.634;2023-03-26T19:53:09;3.03;;;1.35;;
21480;SDS011;10902;48.158;8.634;2023-03-26T19:55:41;3.97;;;1.40;;
21480;SDS011;10902;48.158;8.634;2023-03-26T19:58:17;3.42;;;1.00;;
21480;SDS011;10902;48.158;8.634;2023-03-26T20:00:43;3.15;;;1.20;;
21480;SDS011;10902;48.158;8.634;2023-03-26T20:03:09;4.20;;;1.50;;
21480;SDS011;10902;48.158;8.634;2023-03-26T20:05:34;2.58;;;0.70;;
21480;SDS011;10902;48.158;8.634;2023-03-26T20:08:00;5.38;;;2.95;;
21480;SDS011;10902;48.158;8.634;2023-03-26T20:10:36;7.05;;;3.05;;
21480;SDS011;10902;48.158;8.634;2023-03-26T20:13:02;5.68;;;1.80;;
21480;SDS011;10902;48.158;8.634;2023-03-26T20:15:28;3.75;;;1.95;;
21480;SDS011;10902;48.158;8.634;2023-03-26T20:17:58;5.65;;;2.33;;
21480;SDS011;10902;48.158;8.634;2023-03-26T20:20:25;4.00;;;2.20;;
21480;SDS011;10902;48.158;8.634;2023-03-26T20:22:51;5.80;;;2.45;;
21480;SDS011;10902;48.158;8.634;2023-03-26T20:25:33;5.03;;;2.20;;
21480;SDS011;10902;48.158;8.634;2023-03-26T20:27:59;5.25;;;2.25;;
21480;SDS011;10902;48.158;8.634;2023-03-26T20:30:25;5.15;;;2.17;;
21480;SDS011;10902;48.158;8.634;2023-03-26T20:32:52;5.53;;;2.20;;
21480;SDS011;10902;48.158;8.634;2023-03-26T20:35:20;4.07;;;1.85;;
21480;SDS011;10902;48.158;8.634;2023-03-26T20:37:50;4.10;;;1.67;;
21480;SDS011;10902;48.158;8.634;2023-03-26T20:40:16;4.93;;;1.70;;
21480;SDS011;10902;48.158;8.634;2023-03-26T20:42:43;5.57;;;2.33;;
21480;SDS011;10902;48.158;8.634;2023-03-26T20:47:44;5.47;;;2.13;;
21480;SDS011;10902;48.158;8.634;2023-03-26T20:50:12;3.70;;;1.98;;
21480;SDS011;10902;48.158;8.634;2023-03-26T20:52:39;5.07;;;2.00;;
21480;SDS011;10902;48.158;8.634;2023-03-26T20:55:09;5.22;;;2.05;;
21480;SDS011;10902;48.158;8.634;2023-03-26T20:57:37;5.55;;;1.90;;
21480;SDS011;10902;48.158;8.634;2023-03-26T21:00:03;3.40;;;1.50;;
21480;SDS011;10902;48.158;8.634;2023-03-26T21:02:52;4.35;;;1.90;;
21480;SDS011;10902;48.158;8.634;2023-03-26T21:05:23;3.88;;;2.10;;
21480;SDS011;10902;48.158;8.634;2023-03-26T21:07:51;4.57;;;2.20;;
21480;SDS011;10902;48.158;8.634;2023-03-26T21:10:21;4.32;;;2.20;;
21480;SDS011;10902;48.158;8.634;2023-03-26T21:16:00;4.68;;;2.40;;
21480;SDS011;10902;48.158;8.634;2023-03-26T21:18:26;4.40;;;1.92;;
21480;SDS011;10902;48.158;8.634;2023-03-26T21:21:39;4.78;;;2.17;;
21480;SDS011;10902;48.158;8.634;2023-03-26T21:24:07;5.28;;;2.25;;
21480;SDS011;10902;48.158;8.634;2023-03-26T21:26:41;5.05;;;2.25;;